Terminal Aerodrome Forecast
Issued by NWS

Home | Current Version | Previous Version | Text Only | Print | Product List | Glossary On
Versions: 1 2 3 4 5 6 7 8 9 10 11 12 13 14 15 16 17 18 19 20 21 22 23 24 25 26 27 28 29 30 31 32 33 34 35 36 37 38
000
FTUS45 KBOU 291740
TAFBJC
TAF
KBJC 291740Z 2918/3018 VRB03KT P6SM FEW140
     FM292000 14006KT P6SM FEW090
     FM292200 17007KT P6SM FEW080 SCT200
     FM300200 20008KT P6SM FEW080 SCT140
     FM301500 25009KT P6SM SCT080 BKN140=

USA.gov is the U.S. government's official web portal to all federal, state and local government web resources and services.